createdAt,value
2022-08-26T00:00:02.156Z,88.31
2022-08-26T00:01:02.199Z,88.21
2022-08-26T00:02:02.171Z,88.21
2022-08-26T00:03:02.146Z,88.11
2022-08-26T00:04:02.193Z,88.21
2022-08-26T00:05:02.164Z,88.11
2022-08-26T00:06:02.104Z,87.71
2022-08-26T00:07:02.100Z,87.81
2022-08-26T00:08:02.091Z,88.21
2022-08-26T00:09:02.149Z,88.25
2022-08-26T00:10:02.149Z,88.01
2022-08-26T00:11:02.112Z,88.71
2022-08-26T00:12:02.063Z,88.35
2022-08-26T00:13:02.037Z,88.51
2022-08-26T00:14:02.048Z,88.71
2022-08-26T00:15:02.120Z,88.75
2022-08-26T00:16:02.042Z,88.45
2022-08-26T00:17:02.057Z,88.75
2022-08-26T00:18:01.987Z,88.45
2022-08-26T00:19:02.074Z,88.85
2022-08-26T00:20:01.999Z,88.75
2022-08-26T00:21:06.081Z,88.75
2022-08-26T00:22:01.996Z,89.36
2022-08-26T00:23:02.031Z,89.36
2022-08-26T00:24:01.988Z,89.46
2022-08-26T00:25:01.995Z,89.06
2022-08-26T00:26:01.939Z,89.20
2022-08-26T00:27:01.996Z,90.20
2022-08-26T00:28:02.009Z,90.50
2022-08-26T00:29:01.987Z,90.55
2022-08-26T00:30:01.925Z,91.35
2022-08-26T00:31:01.925Z,91.15
2022-08-26T00:32:01.925Z,91.05
2022-08-26T00:33:01.901Z,91.05
2022-08-26T00:34:01.887Z,91.35
2022-08-26T00:35:01.906Z,91.25
2022-08-26T00:36:01.867Z,90.85
2022-08-26T00:37:01.900Z,91.46
2022-08-26T00:38:01.875Z,90.95
2022-08-26T00:39:01.952Z,90.95
2022-08-26T00:40:05.246Z,91.35
2022-08-26T00:41:01.854Z,91.35
2022-08-26T00:42:01.830Z,91.60
2022-08-26T00:43:01.885Z,91.70
2022-08-26T00:44:01.813Z,91.66
2022-08-26T00:45:01.823Z,91.09
2022-08-26T00:46:02.407Z,91.30
2022-08-26T00:47:02.855Z,91.66
2022-08-26T00:48:01.830Z,91.60
2022-08-26T00:49:01.767Z,92.06
2022-08-26T00:50:01.786Z,92.00
2022-08-26T00:51:01.810Z,91.90
2022-08-26T00:52:01.792Z,91.55
2022-08-26T00:53:01.817Z,91.70
2022-08-26T00:54:01.769Z,92.00
2022-08-26T00:55:01.716Z,92.40
2022-08-26T00:56:01.695Z,92.20
2022-08-26T00:57:01.726Z,92.50
2022-08-26T00:58:01.695Z,92.25
2022-08-26T00:59:01.699Z,92.50
2022-08-26T01:00:01.721Z,92.05
2022-08-26T01:01:01.753Z,92.25
2022-08-26T01:02:02.718Z,92.85
2022-08-26T01:03:01.746Z,92.25
2022-08-26T01:04:01.644Z,92.35
2022-08-26T01:05:01.662Z,92.55
2022-08-26T01:06:01.651Z,92.14
2022-08-26T01:07:01.664Z,92.25
2022-08-26T01:08:01.639Z,92.55
2022-08-26T01:09:01.646Z,92.14
2022-08-26T01:10:01.647Z,92.05
2022-08-26T01:11:01.627Z,92.05
2022-08-26T01:12:01.698Z,92.19
2022-08-26T01:13:01.675Z,92.39
2022-08-26T01:14:01.600Z,92.49
2022-08-26T01:15:01.962Z,92.35
2022-08-26T01:16:01.599Z,92.39
2022-08-26T01:17:01.587Z,92.09
2022-08-26T01:18:01.583Z,92.29
2022-08-26T01:19:01.585Z,92.79
2022-08-26T01:20:01.582Z,92.39
2022-08-26T01:21:01.593Z,92.79
2022-08-26T01:22:01.569Z,92.39
2022-08-26T01:23:03.248Z,93.19
2022-08-26T01:24:01.548Z,93.34
2022-08-26T01:25:03.569Z,92.99
2022-08-26T01:26:01.529Z,93.50
2022-08-26T01:27:01.469Z,93.54
2022-08-26T01:28:01.518Z,93.34
2022-08-26T01:29:01.511Z,93.85
2022-08-26T01:30:01.477Z,94.00
2022-08-26T01:31:01.457Z,93.85
2022-08-26T01:32:01.478Z,93.85
2022-08-26T01:33:01.607Z,93.95
2022-08-26T01:34:01.480Z,93.85
2022-08-26T01:35:01.456Z,93.74
2022-08-26T01:36:01.564Z,93.85
2022-08-26T01:37:01.491Z,93.54
2022-08-26T01:38:02.335Z,93.24
2022-08-26T01:39:01.453Z,93.24
2022-08-26T01:40:01.480Z,93.38
2022-08-26T01:41:01.386Z,93.34
2022-08-26T01:42:02.998Z,93.65
2022-08-26T01:43:02.368Z,93.95
2022-08-26T01:44:01.391Z,94.80
2022-08-26T01:45:01.366Z,94.80
2022-08-26T02:01:41.807Z,94.94
2022-08-26T02:02:41.297Z,95.50
2022-08-26T02:03:42.321Z,94.59
2022-08-26T02:04:41.373Z,94.94
2022-08-26T02:05:41.320Z,94.44
2022-08-26T02:06:41.333Z,94.70
2022-08-26T02:07:41.363Z,94.74
2022-08-26T02:08:41.287Z,95.00
2022-08-26T02:09:41.679Z,94.80
2022-08-26T02:10:41.315Z,94.84
2022-08-26T02:11:41.266Z,95.45
2022-08-26T02:12:41.289Z,95.45
2022-08-26T02:13:41.261Z,95.10
2022-08-26T02:14:43.564Z,94.94
2022-08-26T02:15:41.270Z,95.65
2022-08-26T02:16:42.289Z,95.85
2022-08-26T02:17:41.258Z,95.85
2022-08-26T02:18:41.252Z,95.75
2022-08-26T02:19:41.250Z,95.90
2022-08-26T02:20:41.253Z,96.15
2022-08-26T02:21:41.274Z,96.56
2022-08-26T02:22:41.929Z,95.85
2022-08-26T02:23:42.095Z,95.65
2022-08-26T02:25:13.989Z,95.59
2022-08-26T02:25:41.208Z,95.90
2022-08-26T02:26:41.171Z,95.79
2022-08-26T02:27:41.152Z,95.85
2022-08-26T02:28:42.080Z,96.05
2022-08-26T02:29:41.116Z,95.90
2022-08-26T02:30:41.169Z,96.30
2022-08-26T02:31:41.245Z,96.20
2022-08-26T02:32:41.379Z,96.20
2022-08-26T02:33:43.108Z,95.90
2022-08-26T02:34:41.116Z,96.10
2022-08-26T02:35:41.112Z,96.10
2022-08-26T02:36:41.100Z,96.30
2022-08-26T02:37:41.903Z,96.00
2022-08-26T02:38:41.043Z,96.50
2022-08-26T02:39:41.110Z,96.50
2022-08-26T02:40:41.983Z,96.10
2022-08-26T02:41:44.805Z,95.59
2022-08-26T02:42:41.991Z,96.30
2022-08-26T02:43:41.154Z,96.10
2022-08-26T02:44:41.104Z,96.10
2022-08-26T02:45:42.501Z,95.59
2022-08-26T02:46:41.684Z,96.45
2022-08-26T02:47:42.624Z,96.10
2022-08-26T02:48:41.005Z,96.65
2022-08-26T02:49:41.057Z,96.10
2022-08-26T02:50:41.017Z,96.10
2022-08-26T02:51:41.043Z,96.30
2022-08-26T02:52:40.991Z,96.60
2022-08-26T02:53:41.032Z,96.60
2022-08-26T02:54:40.971Z,96.80
2022-08-26T02:55:40.986Z,96.70
2022-08-26T02:56:41.003Z,96.30
2022-08-26T02:57:40.980Z,96.00
2022-08-26T02:58:40.993Z,96.20
2022-08-26T02:59:41.073Z,96.00
2022-08-26T03:00:53.093Z,96.40
2022-08-26T03:01:42.065Z,96.30
2022-08-26T03:02:40.899Z,96.30
2022-08-26T03:03:40.961Z,96.45
2022-08-26T03:04:40.927Z,96.80
2022-08-26T03:05:41.856Z,96.70
2022-08-26T03:06:41.529Z,96.30
2022-08-26T03:07:41.713Z,96.40
2022-08-26T03:08:40.912Z,96.00
2022-08-26T03:09:40.864Z,95.59
2022-08-26T03:10:40.883Z,95.85
2022-08-26T03:11:40.881Z,96.05
2022-08-26T03:12:40.874Z,95.59
2022-08-26T03:13:40.879Z,96.36
2022-08-26T03:14:40.828Z,96.36
2022-08-26T03:15:40.829Z,95.65
2022-08-26T03:16:40.808Z,95.75
2022-08-26T03:17:40.772Z,95.61
2022-08-26T03:18:40.782Z,95.35
2022-08-26T03:19:40.742Z,95.95
2022-08-26T03:20:40.767Z,95.81
2022-08-26T03:21:40.789Z,95.65
2022-08-26T03:22:40.747Z,96.05
2022-08-26T03:23:40.735Z,95.61
2022-08-26T03:24:40.753Z,95.14
2022-08-26T03:25:41.635Z,95.10
2022-08-26T03:26:40.726Z,94.80
2022-08-26T03:27:41.746Z,95.20
2022-08-26T03:28:40.765Z,95.10
2022-08-26T03:29:45.417Z,95.00
2022-08-26T03:30:45.464Z,95.10
2022-08-26T03:31:41.743Z,95.00
2022-08-26T03:32:41.365Z,94.70
2022-08-26T03:33:40.731Z,94.19
2022-08-26T03:34:40.681Z,94.09
2022-08-26T03:35:40.736Z,94.90
2022-08-26T03:36:41.687Z,94.90
2022-08-26T03:37:40.626Z,94.80
2022-08-26T03:38:40.627Z,94.80
2022-08-26T03:39:40.698Z,94.74
2022-08-26T03:40:40.606Z,94.74
2022-08-26T03:41:40.621Z,94.59
2022-08-26T03:42:40.588Z,95.14
2022-08-26T03:43:40.560Z,95.10
2022-08-26T03:44:42.088Z,94.74
2022-08-26T03:45:40.547Z,94.84
2022-08-26T03:46:40.618Z,95.04
2022-08-26T04:02:37.310Z,97.16
2022-08-26T04:03:37.261Z,96.95
2022-08-26T04:04:38.462Z,96.89
2022-08-26T04:05:39.463Z,96.85
2022-08-26T04:06:38.388Z,96.65
2022-08-26T04:07:38.384Z,96.75
2022-08-26T04:08:38.366Z,96.85
2022-08-26T04:09:38.457Z,96.85
2022-08-26T04:10:38.402Z,96.95
2022-08-26T04:11:38.938Z,96.85
2022-08-26T04:12:38.409Z,97.45
2022-08-26T04:13:38.370Z,97.25
2022-08-26T04:14:38.447Z,97.25
2022-08-26T04:15:38.348Z,97.25
2022-08-26T04:16:38.325Z,96.95
2022-08-26T04:17:38.320Z,96.75
2022-08-26T04:18:38.362Z,96.55
2022-08-26T04:19:39.338Z,96.65
2022-08-26T04:20:38.327Z,96.95
2022-08-26T04:21:38.273Z,96.45
2022-08-26T04:22:38.312Z,96.85
2022-08-26T04:23:47.092Z,96.75
2022-08-26T04:24:40.362Z,96.45
2022-08-26T04:25:38.268Z,96.65
2022-08-26T04:26:39.515Z,96.65
2022-08-26T04:27:38.993Z,96.85
2022-08-26T04:28:38.382Z,97.16
2022-08-26T04:29:38.237Z,96.95
2022-08-26T04:30:38.232Z,96.95
2022-08-26T04:31:38.229Z,96.65
2022-08-26T04:32:38.248Z,96.65
2022-08-26T04:33:41.738Z,96.80
2022-08-26T04:34:38.174Z,96.60
2022-08-26T04:35:38.170Z,96.80
2022-08-26T04:36:39.222Z,96.60
2022-08-26T04:37:38.208Z,96.50
2022-08-26T04:38:38.147Z,96.00
2022-08-26T04:39:38.144Z,95.79
2022-08-26T04:40:38.141Z,96.04
2022-08-26T04:41:38.180Z,95.79
2022-08-26T04:42:38.123Z,96.10
2022-08-26T04:43:38.105Z,96.00
2022-08-26T04:44:38.135Z,95.90
2022-08-26T04:45:38.240Z,95.90
2022-08-26T04:46:39.960Z,95.79
2022-08-26T04:47:39.087Z,96.60
2022-08-26T04:48:38.045Z,95.90
2022-08-26T04:49:38.057Z,95.79
2022-08-26T04:50:38.066Z,96.00
2022-08-26T04:51:39.508Z,95.90
2022-08-26T04:52:38.033Z,96.70
2022-08-26T04:53:38.053Z,95.79
2022-08-26T04:54:43.109Z,95.65
2022-08-26T04:55:38.388Z,95.65
2022-08-26T04:56:38.063Z,96.15
2022-08-26T04:57:38.175Z,95.81
2022-08-26T04:58:38.033Z,95.30
2022-08-26T04:59:39.573Z,95.30
2022-08-26T05:00:39.002Z,95.14
2022-08-26T05:01:39.507Z,95.40
2022-08-26T05:02:37.962Z,95.00
2022-08-26T05:03:37.997Z,94.70
2022-08-26T05:04:37.979Z,94.09
2022-08-26T05:05:37.963Z,93.99
2022-08-26T05:06:37.926Z,93.79
2022-08-26T05:07:37.936Z,93.85
2022-08-26T05:08:37.932Z,93.54
2022-08-26T05:09:37.914Z,93.95
2022-08-26T05:10:38.581Z,93.24
2022-08-26T05:11:38.008Z,92.69
2022-08-26T05:12:38.506Z,92.29
2022-08-26T05:13:37.886Z,91.94
2022-08-26T05:14:37.866Z,91.54
2022-08-26T05:15:37.951Z,91.04
2022-08-26T05:16:40.391Z,91.60
2022-08-26T05:17:37.895Z,90.69
2022-08-26T05:18:37.901Z,89.79
2022-08-26T05:19:38.628Z,89.69
2022-08-26T05:20:38.793Z,90.05
2022-08-26T05:21:37.827Z,89.39
2022-08-26T05:22:38.539Z,89.54
2022-08-26T05:23:37.831Z,90.25
2022-08-26T05:24:37.818Z,89.64
2022-08-26T05:25:38.624Z,89.64
2022-08-26T05:26:38.772Z,89.69
2022-08-26T05:27:37.790Z,89.69
2022-08-26T05:28:37.758Z,89.39
2022-08-26T05:29:37.874Z,89.79
2022-08-26T05:30:38.668Z,90.09
2022-08-26T05:31:38.333Z,90.29
2022-08-26T05:32:37.763Z,90.73
2022-08-26T05:33:37.748Z,90.69
2022-08-26T05:34:38.114Z,90.69
2022-08-26T05:35:37.775Z,90.39
2022-08-26T05:36:38.018Z,90.29
2022-08-26T05:37:38.607Z,90.29
2022-08-26T05:38:37.802Z,90.79
2022-08-26T05:39:37.741Z,90.69
2022-08-26T05:40:37.857Z,90.64
2022-08-26T05:41:38.381Z,91.04
2022-08-26T05:42:37.684Z,91.24
2022-08-26T05:43:37.776Z,90.94
2022-08-26T05:44:55.750Z,91.64
2022-08-26T05:45:41.242Z,91.64
2022-08-26T05:46:38.702Z,91.24
2022-08-26T05:47:37.813Z,91.39
2022-08-26T05:48:37.690Z,90.79
2022-08-26T05:49:43.740Z,90.15
2022-08-26T05:50:39.426Z,90.05
2022-08-26T05:51:37.695Z,89.50
2022-08-26T05:52:37.738Z,88.90
2022-08-26T05:53:40.420Z,89.10
2022-08-26T05:54:38.088Z,88.75
2022-08-26T05:55:38.461Z,88.79
2022-08-26T05:56:38.446Z,88.15
2022-08-26T05:57:42.863Z,88.05
2022-08-26T05:58:40.419Z,88.35
2022-08-26T05:59:38.598Z,87.65
2022-08-26T06:00:37.512Z,87.01
2022-08-26T06:01:37.560Z,87.04
2022-08-26T06:02:37.582Z,87.35
2022-08-26T06:03:37.497Z,87.04
2022-08-26T06:04:37.516Z,87.41
2022-08-26T06:05:39.186Z,87.51
2022-08-26T06:06:38.471Z,87.01
2022-08-26T06:07:37.484Z,87.06
2022-08-26T06:08:37.464Z,87.06
2022-08-26T06:09:37.495Z,87.16
2022-08-26T06:10:37.437Z,86.62
2022-08-26T06:11:37.449Z,86.16
2022-08-26T06:12:38.842Z,86.12
2022-08-26T06:13:38.428Z,85.92
2022-08-26T06:14:37.470Z,85.92
2022-08-26T06:15:37.454Z,85.82
2022-08-26T06:16:37.591Z,86.02
2022-08-26T06:17:37.447Z,85.82
2022-08-26T06:18:37.432Z,84.91
2022-08-26T06:19:37.407Z,84.81
2022-08-26T06:20:37.392Z,85.31
2022-08-26T06:21:38.065Z,86.16
2022-08-26T06:22:37.581Z,87.15
2022-08-26T06:23:37.337Z,88.65
2022-08-26T06:24:37.360Z,88.95
2022-08-26T06:25:37.367Z,88.85
2022-08-26T06:26:39.499Z,89.20
2022-08-26T06:27:37.721Z,88.65
2022-08-26T06:28:37.339Z,88.21
2022-08-26T06:29:37.560Z,87.10
2022-08-26T06:30:37.356Z,86.96
2022-08-26T06:31:37.285Z,86.66
2022-08-26T06:32:38.309Z,86.52
2022-08-26T06:33:37.325Z,85.92
2022-08-26T06:34:37.307Z,85.68
2022-08-26T06:35:37.257Z,84.77
2022-08-26T06:36:37.244Z,85.17
2022-08-26T06:37:37.315Z,86.32
2022-08-26T06:38:37.245Z,85.82
2022-08-26T06:39:41.101Z,86.76
2022-08-26T06:40:37.206Z,87.16
2022-08-26T06:41:41.327Z,86.86
2022-08-26T06:42:39.202Z,87.06
2022-08-26T06:43:37.184Z,87.16
2022-08-26T06:44:37.190Z,87.57
2022-08-26T06:45:37.163Z,87.37
2022-08-26T06:46:37.237Z,87.06
2022-08-26T06:47:37.217Z,86.62
2022-08-26T06:48:37.167Z,86.76
2022-08-26T06:49:38.049Z,87.06
2022-08-26T06:50:37.193Z,87.06
2022-08-26T06:51:37.148Z,86.72
2022-08-26T06:52:37.330Z,85.82
2022-08-26T06:53:37.221Z,85.97
2022-08-26T06:54:37.197Z,85.88
2022-08-26T06:55:37.162Z,85.88
2022-08-26T06:56:37.132Z,85.47
2022-08-26T06:57:37.783Z,85.17
2022-08-26T06:58:37.114Z,85.17
2022-08-26T06:59:37.942Z,85.92
2022-08-26T07:00:37.575Z,86.18
2022-08-26T07:01:37.960Z,85.17
2022-08-26T07:02:38.026Z,85.68
2022-08-26T07:03:39.568Z,85.58
2022-08-26T07:04:37.036Z,85.13
2022-08-26T07:05:37.038Z,84.01
2022-08-26T07:06:37.047Z,81.83
2022-08-26T07:07:37.008Z,81.33
2022-08-26T07:08:37.059Z,80.05
2022-08-26T07:09:37.042Z,78.58
2022-08-26T07:10:36.986Z,78.18
2022-08-26T07:11:37.027Z,78.48
2022-08-26T07:12:37.156Z,78.78
2022-08-26T07:13:37.673Z,77.88
2022-08-26T07:14:37.584Z,78.42
2022-08-26T07:15:36.981Z,79.05
2022-08-26T07:16:37.588Z,80.63
2022-08-26T07:17:36.925Z,81.37
2022-08-26T07:18:36.942Z,82.51
2022-08-26T07:19:36.926Z,82.95
2022-08-26T07:20:36.986Z,83.75
2022-08-26T07:21:36.961Z,84.15
2022-08-26T07:22:36.907Z,83.35
2022-08-26T07:23:36.911Z,83.71
2022-08-26T07:24:36.888Z,82.61
2022-08-26T07:25:36.924Z,81.91
2022-08-26T07:26:36.893Z,82.23
2022-08-26T07:27:37.649Z,79.61
2022-08-26T07:28:38.342Z,76.93
2022-08-26T07:29:36.940Z,72.81
2022-08-26T07:30:36.940Z,72.21
2022-08-26T07:31:39.375Z,72.11
2022-08-26T07:32:39.484Z,72.88
2022-08-26T07:33:36.826Z,74.01
2022-08-26T07:34:36.820Z,74.41
2022-08-26T07:35:36.825Z,74.24
2022-08-26T07:36:36.870Z,74.74
2022-08-26T07:37:39.124Z,74.94
2022-08-26T07:38:36.831Z,75.04
2022-08-26T07:39:37.452Z,75.91
2022-08-26T07:40:36.787Z,76.01
2022-08-26T07:41:36.771Z,76.21
2022-08-26T07:42:36.760Z,77.14
2022-08-26T07:43:36.738Z,77.88
2022-08-26T07:44:36.713Z,79.41
2022-08-26T07:45:37.119Z,78.04
2022-08-26T07:46:36.698Z,77.27
2022-08-26T07:47:36.729Z,75.31
2022-08-26T07:48:36.832Z,72.77
2022-08-26T07:49:37.613Z,71.84
2022-08-26T07:50:48.841Z,70.39
2022-08-26T07:51:37.745Z,69.32
2022-08-26T07:52:36.705Z,67.87
2022-08-26T07:53:36.678Z,68.43
2022-08-26T07:54:36.662Z,69.43
2022-08-26T07:55:36.713Z,69.59
2022-08-26T07:56:36.641Z,72.21
2022-08-26T07:57:36.647Z,73.77
2022-08-26T07:58:36.668Z,75.84
2022-08-26T07:59:36.714Z,76.81
2022-08-26T08:00:36.667Z,78.18
2022-08-26T08:01:37.402Z,79.11
2022-08-26T08:02:37.457Z,79.11
2022-08-26T08:03:36.720Z,79.08
2022-08-26T08:04:36.715Z,78.64
2022-08-26T08:05:36.650Z,78.78
2022-08-26T08:06:36.640Z,78.78
2022-08-26T08:07:44.207Z,79.41
2022-08-26T08:08:37.693Z,80.41
2022-08-26T08:09:36.611Z,79.58
2022-08-26T08:10:36.599Z,79.68
2022-08-26T08:11:36.568Z,79.17
2022-08-26T08:12:36.601Z,79.38
2022-08-26T08:13:36.556Z,79.68
2022-08-26T08:14:36.638Z,78.74
2022-08-26T08:15:36.508Z,78.50
2022-08-26T08:16:40.173Z,78.00
2022-08-26T08:17:38.492Z,77.27
2022-08-26T08:18:37.046Z,77.31
2022-08-26T08:19:39.028Z,77.81
2022-08-26T08:20:36.482Z,78.41
2022-08-26T08:21:36.481Z,77.91
2022-08-26T08:22:36.443Z,78.50
2022-08-26T08:23:36.421Z,79.14
2022-08-26T08:25:10.557Z,78.94
2022-08-26T08:27:11.843Z,78.43
2022-08-26T08:28:12.843Z,77.13
2022-08-26T08:30:37.844Z,75.63
2022-08-26T08:31:56.859Z,74.73
2022-08-26T08:32:39.177Z,74.43
2022-08-26T08:33:37.850Z,74.93
2022-08-26T08:35:39.271Z,73.90
2022-08-26T08:36:39.489Z,73.60
2022-08-26T08:37:39.434Z,73.67
2022-08-26T08:38:39.196Z,74.00
2022-08-26T08:39:39.314Z,74.00
2022-08-26T08:40:40.573Z,74.07
2022-08-26T08:41:39.922Z,72.64
2022-08-26T08:42:40.765Z,72.74
2022-08-26T08:43:39.821Z,73.47
2022-08-26T08:44:39.903Z,74.40
2022-08-26T08:45:39.445Z,74.93
2022-08-26T08:46:39.326Z,73.90
2022-08-26T08:47:38.940Z,73.70
2022-08-26T08:48:39.354Z,72.84
2022-08-26T08:49:40.335Z,72.41
2022-08-26T08:50:39.894Z,72.20
2022-08-26T08:51:39.160Z,71.67
2022-08-26T08:52:39.346Z,72.17
2022-08-26T08:53:39.167Z,71.64
2022-08-26T08:54:39.831Z,71.78
2022-08-26T08:55:39.949Z,72.14
2022-08-26T08:56:39.297Z,71.54
2022-08-26T08:57:39.424Z,71.74
2022-08-26T08:58:39.181Z,71.64
2022-08-26T08:59:38.983Z,71.25
2022-08-26T09:00:40.078Z,72.01
2022-08-26T09:01:40.937Z,72.80
2022-08-26T09:02:39.095Z,72.71
2022-08-26T09:03:39.004Z,72.90
2022-08-26T09:04:39.734Z,72.74
2022-08-26T09:05:39.802Z,73.33
2022-08-26T09:06:39.065Z,73.77
2022-08-26T09:07:39.659Z,73.54
2022-08-26T09:08:39.043Z,73.43
2022-08-26T09:09:39.891Z,73.73
2022-08-26T09:10:38.956Z,72.41
2022-08-26T09:11:39.110Z,72.07
2022-08-26T09:12:39.070Z,72.14
2022-08-26T09:13:39.196Z,72.31
2022-08-26T09:14:39.027Z,73.10
2022-08-26T09:15:39.024Z,72.11
2022-08-26T09:16:39.153Z,72.27
2022-08-26T09:17:40.049Z,71.84
2022-08-26T09:19:11.031Z,71.51
2022-08-26T09:19:38.615Z,70.81
2022-08-26T09:20:38.663Z,70.22
2022-08-26T09:21:38.616Z,70.81
2022-08-26T09:22:38.593Z,70.62
2022-08-26T09:23:38.549Z,70.81
2022-08-26T09:24:41.866Z,70.48
2022-08-26T09:25:39.550Z,69.46
2022-08-26T09:26:38.575Z,67.97
2022-08-26T09:27:38.532Z,67.68
2022-08-26T09:28:38.553Z,68.13
2022-08-26T09:29:38.587Z,68.46
2022-08-26T09:30:38.602Z,67.35
2022-08-26T09:31:38.511Z,66.52
2022-08-26T09:32:38.507Z,64.65
2022-08-26T09:33:38.613Z,62.41
2022-08-26T09:34:38.534Z,61.93
2022-08-26T09:35:41.874Z,59.68
2022-08-26T09:36:41.052Z,58.32
2022-08-26T09:37:39.555Z,57.82
2022-08-26T09:38:38.487Z,58.32
2022-08-26T09:39:38.468Z,56.24
2022-08-26T09:40:38.518Z,55.82
2022-08-26T09:41:38.471Z,54.17
2022-08-26T09:42:38.449Z,53.93
2022-08-26T09:43:38.472Z,53.05
2022-08-26T09:44:38.457Z,52.49
2022-08-26T09:45:38.474Z,54.21
2022-08-26T09:47:38.420Z,54.46
2022-08-26T09:48:40.570Z,56.10
2022-08-26T09:49:38.419Z,55.88
2022-08-26T09:51:13.906Z,55.76
2022-08-26T09:51:44.979Z,55.90
2022-08-26T09:52:50.533Z,54.05
2022-08-26T09:53:38.901Z,52.73
2022-08-26T09:54:39.406Z,51.34
2022-08-26T09:55:39.060Z,51.39
2022-08-26T09:56:39.505Z,51.07
2022-08-26T09:57:43.085Z,51.24
2022-08-26T09:58:40.115Z,53.27
2022-08-26T09:59:39.845Z,54.52
2022-08-26T10:00:39.970Z,53.74
2022-08-26T10:01:40.316Z,52.51
2022-08-26T10:02:40.138Z,50.78
2022-08-26T10:03:40.483Z,51.46
2022-08-26T10:04:40.114Z,51.37
2022-08-26T10:05:39.210Z,51.73
2022-08-26T10:06:39.384Z,50.82
2022-08-26T10:07:40.602Z,50.80
2022-08-26T10:08:39.129Z,50.26
2022-08-26T10:09:39.354Z,51.56
2022-08-26T10:10:48.201Z,52.42
2022-08-26T10:11:41.557Z,53.35
2022-08-26T10:12:40.605Z,52.81
2022-08-26T10:13:40.283Z,53.20
2022-08-26T10:15:40.393Z,54.36
2022-08-26T10:16:40.387Z,52.96
2022-08-26T10:17:39.619Z,54.60
2022-08-26T10:18:39.384Z,54.93
2022-08-26T10:19:56.094Z,55.22
2022-08-26T10:20:41.027Z,54.80
2022-08-26T10:21:43.209Z,54.73
2022-08-26T10:22:46.413Z,54.41
2022-08-26T10:24:40.412Z,54.98
2022-08-26T10:25:39.607Z,55.08
2022-08-26T10:26:39.364Z,55.69
2022-08-26T10:27:40.490Z,55.96
2022-08-26T10:28:40.771Z,55.30
2022-08-26T10:29:38.725Z,55.49
2022-08-26T10:30:38.950Z,55.20
2022-08-26T10:31:40.657Z,54.25
2022-08-26T10:32:41.532Z,54.27
2022-08-26T10:33:39.414Z,54.82
2022-08-26T10:34:38.547Z,55.01
2022-08-26T10:35:38.519Z,55.43
2022-08-26T10:36:52.378Z,56.35
2022-08-26T10:37:41.557Z,56.18
2022-08-26T10:38:39.446Z,56.18
2022-08-26T10:39:39.422Z,55.83
2022-08-26T10:40:38.728Z,55.63
2022-08-26T10:41:39.361Z,56.45
2022-08-26T10:42:38.966Z,56.74
2022-08-26T10:43:40.990Z,56.12
2022-08-26T10:44:38.631Z,56.12
2022-08-26T10:45:39.465Z,56.32
2022-08-26T10:46:38.236Z,56.32
2022-08-26T10:47:38.436Z,56.32
2022-08-26T10:48:38.765Z,55.41
2022-08-26T10:49:38.968Z,55.51
2022-08-26T10:50:40.425Z,55.01
2022-08-26T10:51:39.479Z,55.01
2022-08-26T10:52:38.373Z,54.52
2022-08-26T10:53:39.466Z,54.82
2022-08-26T10:54:40.022Z,54.33
2022-08-26T10:55:38.482Z,54.52
2022-08-26T10:56:39.327Z,54.62
2022-08-26T10:57:38.955Z,54.03
2022-08-26T10:58:44.628Z,53.81
2022-08-26T10:59:40.872Z,53.93
2022-08-26T11:00:39.453Z,54.43
2022-08-26T11:01:40.810Z,54.00
2022-08-26T11:02:38.719Z,53.49
2022-08-26T11:03:38.497Z,53.49
2022-08-26T11:04:38.640Z,53.68
2022-08-26T11:05:43.400Z,53.78
2022-08-26T11:06:40.007Z,53.88
2022-08-26T11:07:39.929Z,53.70
2022-08-26T11:08:38.290Z,53.54
2022-08-26T11:09:40.007Z,53.70
2022-08-26T11:10:38.959Z,53.81
2022-08-26T11:11:40.445Z,53.93
2022-08-26T11:12:38.932Z,53.51
2022-08-26T11:13:41.577Z,53.91
2022-08-26T11:14:58.449Z,53.78
2022-08-26T11:15:40.334Z,53.46
2022-08-26T11:16:42.917Z,53.06
2022-08-26T11:17:39.523Z,53.16
2022-08-26T11:18:38.855Z,52.94
2022-08-26T11:19:59.643Z,52.84
2022-08-26T11:20:41.753Z,52.87
2022-08-26T11:21:38.537Z,53.66
2022-08-26T11:22:47.548Z,53.56
2022-08-26T11:23:40.348Z,53.36
2022-08-26T11:24:38.412Z,53.56
2022-08-26T11:25:38.409Z,52.82
2022-08-26T11:26:56.303Z,51.64
2022-08-26T11:27:39.815Z,51.74
2022-08-26T11:28:38.396Z,51.91
2022-08-26T11:29:39.025Z,51.74
2022-08-26T11:30:38.490Z,52.28
2022-08-26T11:31:37.862Z,51.67
2022-08-26T11:32:40.451Z,52.06
2022-08-26T11:33:39.181Z,52.03
2022-08-26T11:34:38.557Z,51.25
2022-08-26T11:35:38.439Z,50.93
2022-08-26T11:36:40.441Z,51.10
2022-08-26T11:37:40.622Z,49.99
2022-08-26T11:38:38.461Z,50.02
2022-08-26T11:39:38.658Z,51.17
2022-08-26T11:40:37.745Z,52.06
2022-08-26T11:41:37.689Z,51.74
2022-08-26T11:42:38.458Z,51.74
2022-08-26T11:43:39.008Z,51.74
2022-08-26T11:44:38.710Z,51.72
2022-08-26T11:45:38.535Z,50.83
2022-08-26T11:46:38.880Z,50.93
2022-08-26T11:47:38.301Z,50.54
2022-08-26T11:48:38.337Z,51.00
2022-08-26T11:49:38.571Z,50.59
2022-08-26T11:50:38.484Z,51.07
2022-08-26T11:51:40.408Z,51.29
2022-08-26T11:52:39.627Z,50.02
2022-08-26T11:53:37.642Z,49.60
2022-08-26T11:54:38.472Z,50.42
2022-08-26T11:55:37.670Z,50.71
2022-08-26T11:56:38.950Z,49.80
2022-08-26T11:57:38.282Z,49.48
2022-08-26T11:58:38.452Z,48.99
2022-08-26T11:59:38.479Z,48.87
2022-08-26T12:00:38.955Z,48.68
2022-08-26T12:01:39.455Z,48.75
2022-08-26T12:02:38.377Z,49.04
2022-08-26T12:03:39.099Z,49.04
2022-08-26T12:04:38.544Z,48.85
2022-08-26T12:05:39.477Z,48.43
2022-08-26T12:06:43.424Z,48.46
2022-08-26T12:07:42.541Z,48.85
2022-08-26T12:08:39.955Z,49.26
2022-08-26T12:09:41.316Z,48.97
2022-08-26T12:10:37.530Z,49.07
2022-08-26T12:11:37.550Z,49.73
2022-08-26T12:12:37.951Z,50.85
2022-08-26T12:13:38.199Z,51.22
2022-08-26T12:14:37.635Z,51.57
2022-08-26T12:15:37.589Z,51.64
2022-08-26T12:16:38.182Z,51.05
2022-08-26T12:17:37.972Z,50.83
2022-08-26T12:18:37.630Z,50.61
2022-08-26T12:19:37.520Z,49.55
2022-08-26T12:20:37.533Z,49.55
2022-08-26T12:21:38.935Z,49.36
2022-08-26T12:22:39.967Z,49.48
2022-08-26T12:23:39.095Z,48.99
2022-08-26T12:24:38.215Z,49.16
2022-08-26T12:25:37.471Z,47.63
2022-08-26T12:26:38.971Z,48.14
2022-08-26T12:27:39.012Z,47.21
2022-08-26T12:28:57.594Z,47.07
2022-08-26T12:30:12.353Z,46.78
2022-08-26T12:30:37.315Z,46.70
2022-08-26T12:31:37.976Z,46.97
2022-08-26T12:32:37.446Z,46.14
2022-08-26T12:33:38.252Z,45.25
2022-08-26T12:34:37.241Z,44.81
2022-08-26T12:35:37.269Z,44.20
2022-08-26T12:36:44.209Z,43.91
2022-08-26T12:37:38.208Z,44.20
2022-08-26T12:38:37.196Z,44.20
2022-08-26T12:39:39.197Z,46.17
2022-08-26T12:40:37.395Z,45.85
2022-08-26T12:41:37.284Z,44.83
2022-08-26T12:42:38.215Z,43.93
2022-08-26T12:43:37.218Z,44.30
2022-08-26T12:44:37.215Z,43.89
2022-08-26T12:45:37.331Z,43.50
2022-08-26T12:46:37.867Z,43.48
2022-08-26T12:47:43.368Z,43.23
2022-08-26T12:48:38.699Z,43.52
2022-08-26T12:49:37.152Z,43.52
2022-08-26T12:50:37.175Z,44.17
2022-08-26T12:51:37.142Z,46.31
2022-08-26T12:56:23.504Z,43.40
2022-08-26T12:59:22.113Z,41.77
2022-08-26T13:00:28.514Z,42.31
2022-08-26T13:01:24.322Z,42.72
2022-08-26T13:02:22.788Z,43.13
2022-08-26T13:03:22.772Z,43.54
2022-08-26T13:04:22.758Z,44.27
2022-08-26T13:05:24.548Z,45.00
2022-08-26T13:06:22.726Z,47.57
2022-08-26T13:07:22.732Z,49.14
2022-08-26T13:08:23.551Z,51.37
2022-08-26T13:09:24.551Z,50.44
2022-08-26T13:10:26.029Z,50.24
2022-08-26T13:11:22.661Z,49.82
2022-08-26T13:12:25.068Z,49.73
2022-08-26T13:13:22.760Z,49.43
2022-08-26T13:14:24.583Z,49.31
2022-08-26T13:15:22.750Z,49.21
2022-08-26T13:16:22.751Z,48.45
2022-08-26T13:17:22.700Z,47.55
2022-08-26T13:18:23.250Z,47.74
2022-08-26T13:19:23.154Z,47.77
2022-08-26T13:20:49.021Z,47.45
2022-08-26T13:21:22.534Z,47.52
2022-08-26T13:22:23.304Z,48.01
2022-08-26T13:23:22.506Z,48.41
2022-08-26T13:24:22.514Z,47.52
2022-08-26T13:25:22.642Z,48.72
2022-08-26T13:26:23.347Z,49.14
2022-08-26T13:27:23.383Z,49.33
2022-08-26T13:28:22.527Z,49.60
2022-08-26T13:29:22.737Z,49.02
2022-08-26T13:30:22.477Z,49.14
2022-08-26T13:31:22.481Z,48.52
2022-08-26T13:32:22.500Z,48.43
2022-08-26T13:33:22.490Z,48.55
2022-08-26T13:34:22.522Z,49.29
2022-08-26T13:35:23.635Z,49.38